Time,TemperatureF,DewpointF,PressureIn,WindDirection,WindDirectionDegrees,WindSpeedMPH,WindSpeedGustMPH,Humidity,HourlyPrecipIn,Conditions,Clouds,dailyrainin,SoftwareType,DateUTC
2013-02-24 00:00:00,21.0,-99.9,-100.00,SSE,148,5.0,8.0,-999,0.00,,,0.00,,2013-02-24 06:00:00,
2013-02-24 00:32:00,21.0,-99.9,-100.00,SSE,148,5.0,8.0,-999,0.00,,,0.00,,2013-02-24 06:32:00,
2013-02-24 00:42:00,21.0,-99.9,-100.00,SSE,148,5.0,8.0,-999,0.00,,,0.00,,2013-02-24 06:42:00,
2013-02-24 00:52:00,21.0,-99.9,-100.00,SSE,148,5.0,8.0,-999,0.00,,,0.00,,2013-02-24 06:52:00,
2013-02-24 01:00:00,20.0,-99.9,-100.00,SE,146,3.0,5.0,-999,0.00,,,0.00,,2013-02-24 07:00:00,
2013-02-24 01:42:00,20.0,-99.9,-100.00,SE,146,3.0,5.0,-999,0.00,,,0.00,,2013-02-24 07:42:00,
2013-02-24 01:52:00,20.0,-99.9,-100.00,SE,146,3.0,5.0,-999,0.00,,,0.00,,2013-02-24 07:52:00,
2013-02-24 02:00:00,20.0,-99.9,-100.00,SSE,166,3.0,7.0,-999,0.00,,,0.00,,2013-02-24 08:00:00,
2013-02-24 02:42:00,20.0,-99.9,-100.00,SSE,166,3.0,7.0,-999,0.00,,,0.00,,2013-02-24 08:42:00,
2013-02-24 02:54:00,20.0,-99.9,-100.00,SSE,166,3.0,7.0,-999,0.00,,,0.00,,2013-02-24 08:54:00,
2013-02-24 03:00:00,18.0,-99.9,-100.00,SE,134,3.0,8.0,-999,0.00,,,0.00,,2013-02-24 09:00:00,
2013-02-24 03:42:00,18.0,-99.9,-100.00,SE,134,3.0,8.0,-999,0.00,,,0.00,,2013-02-24 09:42:00,
2013-02-24 03:52:00,18.0,-99.9,-100.00,SE,134,3.0,8.0,-999,0.00,,,0.00,,2013-02-24 09:52:00,
2013-02-24 04:00:00,18.0,-99.9,-100.00,SSE,153,2.0,3.0,-999,0.00,,,0.00,,2013-02-24 10:00:00,
2013-02-24 04:42:00,18.0,-99.9,-100.00,SSE,153,2.0,3.0,-999,0.00,,,0.00,,2013-02-24 10:42:00,
2013-02-24 04:52:00,18.0,-99.9,-100.00,SSE,153,2.0,3.0,-999,0.00,,,0.00,,2013-02-24 10:52:00,
2013-02-24 05:00:00,16.0,-99.9,-100.00,SSE,164,3.0,8.0,-999,0.00,,,0.00,,2013-02-24 11:00:00,
2013-02-24 05:42:00,16.0,-99.9,-100.00,SSE,164,3.0,8.0,-999,0.00,,,0.00,,2013-02-24 11:42:00,
2013-02-24 05:53:00,16.0,-99.9,-100.00,SSE,164,3.0,8.0,-999,0.00,,,0.00,,2013-02-24 11:53:00,
2013-02-24 06:00:00,18.0,-99.9,-100.00,South,173,5.0,11.0,-999,0.00,,,0.00,,2013-02-24 12:00:00,
2013-02-24 06:46:00,18.0,-99.9,-100.00,South,173,5.0,11.0,-999,0.00,,,0.00,,2013-02-24 12:46:00,
2013-02-24 07:00:00,16.0,-99.9,-100.00,South,187,4.0,6.0,-999,0.00,,,0.00,,2013-02-24 13:00:00,
2013-02-24 07:46:00,16.0,-99.9,-100.00,South,187,4.0,6.0,-999,0.00,,,0.00,,2013-02-24 13:46:00,
2013-02-24 07:56:00,16.0,-99.9,-100.00,South,187,4.0,6.0,-999,0.00,,,0.00,,2013-02-24 13:56:00,
2013-02-24 08:46:00,19.0,-99.9,-100.00,South,172,5.0,6.0,-999,0.00,,,0.00,,2013-02-24 14:46:00,
2013-02-24 08:55:00,19.0,-99.9,-100.00,South,172,5.0,6.0,-999,0.00,,,0.00,,2013-02-24 14:55:00,
2013-02-24 09:00:00,23.0,-99.9,-100.00,South,170,5.0,8.0,-999,0.00,,,0.00,,2013-02-24 15:00:00,
2013-02-24 09:43:00,23.0,-99.9,-100.00,South,170,5.0,8.0,-999,0.00,,,0.00,,2013-02-24 15:43:00,
2013-02-24 09:53:00,23.0,-99.9,-100.00,South,170,5.0,8.0,-999,0.00,,,0.00,,2013-02-24 15:53:00,
2013-02-24 10:00:00,29.0,-99.9,-100.00,South,176,3.0,6.0,-999,0.00,,,0.00,,2013-02-24 16:00:00,
2013-02-24 10:42:00,29.0,-99.9,-100.00,South,176,3.0,6.0,-999,0.00,,,0.00,,2013-02-24 16:42:00,
2013-02-24 10:52:00,29.0,-99.9,-100.00,South,176,3.0,6.0,-999,0.00,,,0.00,,2013-02-24 16:52:00,
2013-02-24 11:00:00,33.0,-99.9,-100.00,South,185,4.0,6.0,-999,0.00,,,0.00,,2013-02-24 17:00:00,
2013-02-24 11:42:00,33.0,-99.9,-100.00,South,185,4.0,6.0,-999,0.00,,,0.00,,2013-02-24 17:42:00,
2013-02-24 11:53:00,33.0,-99.9,-100.00,South,185,4.0,6.0,-999,0.00,,,0.00,,2013-02-24 17:53:00,
2013-02-24 12:00:00,35.0,-99.9,-100.00,SSE,156,4.0,7.0,-999,0.00,,,0.00,,2013-02-24 18:00:00,
2013-02-24 12:42:00,35.0,-99.9,-100.00,SSE,156,4.0,7.0,-999,0.00,,,0.00,,2013-02-24 18:42:00,
2013-02-24 12:52:00,35.0,-99.9,-100.00,SSE,156,4.0,7.0,-999,0.00,,,0.00,,2013-02-24 18:52:00,
2013-02-24 13:00:00,38.0,-99.9,-100.00,NNE,19,1.0,5.0,-999,0.00,,,0.00,,2013-02-24 19:00:00,
2013-02-24 13:42:00,38.0,-99.9,-100.00,NNE,19,1.0,5.0,-999,0.00,,,0.00,,2013-02-24 19:42:00,
2013-02-24 13:52:00,38.0,-99.9,-100.00,NNE,19,1.0,5.0,-999,0.00,,,0.00,,2013-02-24 19:52:00,
2013-02-24 14:00:00,40.0,-99.9,-100.00,NNE,18,3.0,5.0,-999,0.00,,,0.00,,2013-02-24 20:00:00,
2013-02-24 14:42:00,40.0,-99.9,-100.00,NNE,18,3.0,5.0,-999,0.00,,,0.00,,2013-02-24 20:42:00,
2013-02-24 14:52:00,40.0,-99.9,-100.00,NNE,18,3.0,5.0,-999,0.00,,,0.00,,2013-02-24 20:52:00,
2013-02-24 15:00:00,40.0,-99.9,-100.00,East,101,5.0,8.0,-999,0.00,,,0.00,,2013-02-24 21:00:00,
2013-02-24 15:42:00,40.0,-99.9,-100.00,East,101,5.0,8.0,-999,0.00,,,0.00,,2013-02-24 21:42:00,
2013-02-24 15:52:00,40.0,-99.9,-100.00,East,101,5.0,8.0,-999,0.00,,,0.00,,2013-02-24 21:52:00,
2013-02-24 16:00:00,41.0,-99.9,-100.00,ESE,117,4.0,8.0,-999,0.00,,,0.00,,2013-02-24 22:00:00,
2013-02-24 16:42:00,41.0,-99.9,-100.00,ESE,117,4.0,8.0,-999,0.00,,,0.00,,2013-02-24 22:42:00,
2013-02-24 16:52:00,41.0,-99.9,-100.00,ESE,117,4.0,8.0,-999,0.00,,,0.00,,2013-02-24 22:52:00,
2013-02-24 17:00:00,39.0,-99.9,-100.00,East,84,3.0,10.0,-999,0.00,,,0.00,,2013-02-24 23:00:00,
2013-02-24 17:42:00,39.0,-99.9,-100.00,East,84,3.0,10.0,-999,0.00,,,0.00,,2013-02-24 23:42:00,
2013-02-24 17:52:00,39.0,-99.9,-100.00,East,84,3.0,10.0,-999,0.00,,,0.00,,2013-02-24 23:52:00,
2013-02-24 18:00:00,37.0,-99.9,-100.00,East,89,5.0,11.0,-999,0.00,,,0.00,,2013-02-25 00:00:00,
2013-02-24 18:42:00,37.0,-99.9,-100.00,East,89,5.0,11.0,-999,0.00,,,0.00,,2013-02-25 00:42:00,
2013-02-24 18:52:00,37.0,-99.9,-100.00,East,89,5.0,11.0,-999,0.00,,,0.00,,2013-02-25 00:52:00,
2013-02-24 19:00:00,36.0,-99.9,-100.00,East,97,3.0,4.0,-999,0.00,,,0.00,,2013-02-25 01:00:00,
2013-02-24 19:42:00,36.0,-99.9,-100.00,East,97,3.0,4.0,-999,0.00,,,0.00,,2013-02-25 01:42:00,
2013-02-24 19:52:00,36.0,-99.9,-100.00,East,97,3.0,4.0,-999,0.00,,,0.00,,2013-02-25 01:52:00,
2013-02-24 20:00:00,34.0,-99.9,-100.00,ESE,105,8.0,14.0,-999,0.00,,,0.00,,2013-02-25 02:00:00,
2013-02-24 20:42:00,34.0,-99.9,-100.00,ESE,105,8.0,14.0,-999,0.00,,,0.00,,2013-02-25 02:42:00,
2013-02-24 20:52:00,34.0,-99.9,-100.00,ESE,105,8.0,14.0,-999,0.00,,,0.00,,2013-02-25 02:52:00,
2013-02-24 21:00:00,32.0,-99.9,-100.00,ESE,118,4.0,7.0,-999,0.00,,,0.00,,2013-02-25 03:00:00,
2013-02-24 21:42:00,32.0,-99.9,-100.00,ESE,118,4.0,7.0,-999,0.00,,,0.00,,2013-02-25 03:42:00,
2013-02-24 21:52:00,32.0,-99.9,-100.00,ESE,118,4.0,7.0,-999,0.00,,,0.00,,2013-02-25 03:52:00,
2013-02-24 22:00:00,31.0,-99.9,-100.00,SE,126,3.0,5.0,-999,0.00,,,0.00,,2013-02-25 04:00:00,
2013-02-24 22:42:00,31.0,-99.9,-100.00,SE,126,3.0,5.0,-999,0.00,,,0.00,,2013-02-25 04:42:00,
2013-02-24 22:52:00,31.0,-99.9,-100.00,SE,126,3.0,5.0,-999,0.00,,,0.00,,2013-02-25 04:52:00,
2013-02-24 23:00:00,30.0,-99.9,-100.00,ESE,116,5.0,7.0,-999,0.00,,,0.00,,2013-02-25 05:00:00,
2013-02-24 23:42:00,30.0,-99.9,-100.00,ESE,116,5.0,7.0,-999,0.00,,,0.00,,2013-02-25 05:42:00,
2013-02-24 23:52:00,30.0,-99.9,-100.00,ESE,116,5.0,7.0,-999,0.00,,,0.00,,2013-02-25 05:52:00,